sensor_id;sensor_type;location;lat;lon;timestamp;P1;durP1;ratioP1;P2;durP2;ratioP2
76234;SDS011;65036;50.934;4.420;2023-02-18T03:30:08;1.80;;;1.10;;
76234;SDS011;65036;50.934;4.420;2023-02-18T03:32:36;1.98;;;1.00;;
76234;SDS011;65036;50.934;4.420;2023-02-18T03:35:02;3.20;;;1.55;;
76234;SDS011;65036;50.934;4.420;2023-02-18T03:37:31;3.97;;;1.58;;
76234;SDS011;65036;50.934;4.420;2023-02-18T03:39:57;1.67;;;0.73;;
76234;SDS011;65036;50.934;4.420;2023-02-18T03:42:28;5.63;;;1.60;;
76234;SDS011;65036;50.934;4.420;2023-02-18T03:44:54;3.95;;;0.82;;
76234;SDS011;65036;50.934;4.420;2023-02-18T03:47:19;1.48;;;1.02;;
76234;SDS011;65036;50.934;4.420;2023-02-18T03:49:44;2.03;;;0.73;;
76234;SDS011;65036;50.934;4.420;2023-02-18T03:52:10;2.83;;;1.60;;
76234;SDS011;65036;50.934;4.420;2023-02-18T03:54:35;1.98;;;0.75;;
76234;SDS011;65036;50.934;4.420;2023-02-18T03:57:01;2.10;;;0.70;;
76234;SDS011;65036;50.934;4.420;2023-02-18T03:59:27;3.03;;;0.88;;
76234;SDS011;65036;50.934;4.420;2023-02-18T04:01:52;1.10;;;0.60;;
76234;SDS011;65036;50.934;4.420;2023-02-18T04:04:18;0.80;;;0.68;;
76234;SDS011;65036;50.934;4.420;2023-02-18T04:06:43;1.10;;;0.70;;
76234;SDS011;65036;50.934;4.420;2023-02-18T04:09:09;1.98;;;1.10;;
76234;SDS011;65036;50.934;4.420;2023-02-18T04:11:38;1.05;;;0.60;;
76234;SDS011;65036;50.934;4.420;2023-02-18T04:14:04;2.05;;;0.88;;
76234;SDS011;65036;50.934;4.420;2023-02-18T04:16:29;1.08;;;0.75;;
76234;SDS011;65036;50.934;4.420;2023-02-18T04:18:55;2.38;;;0.65;;
76234;SDS011;65036;50.934;4.420;2023-02-18T04:21:20;1.45;;;0.50;;
76234;SDS011;65036;50.934;4.420;2023-02-18T04:23:45;0.90;;;0.55;;
76234;SDS011;65036;50.934;4.420;2023-02-18T04:26:11;0.98;;;0.65;;
76234;SDS011;65036;50.934;4.420;2023-02-18T04:28:36;1.73;;;0.50;;
76234;SDS011;65036;50.934;4.420;2023-02-18T04:31:02;1.67;;;0.57;;
76234;SDS011;65036;50.934;4.420;2023-02-18T04:33:27;0.60;;;0.32;;
76234;SDS011;65036;50.934;4.420;2023-02-18T04:35:53;0.75;;;0.47;;
76234;SDS011;65036;50.934;4.420;2023-02-18T04:38:18;0.85;;;0.60;;
76234;SDS011;65036;50.934;4.420;2023-02-18T04:40:43;0.98;;;0.50;;
76234;SDS011;65036;50.934;4.420;2023-02-18T04:43:09;0.43;;;0.32;;
76234;SDS011;65036;50.934;4.420;2023-02-18T04:45:34;1.13;;;0.70;;
76234;SDS011;65036;50.934;4.420;2023-02-18T04:48:00;1.42;;;0.50;;
76234;SDS011;65036;50.934;4.420;2023-02-18T04:50:25;1.15;;;0.40;;
76234;SDS011;65036;50.934;4.420;2023-02-18T04:52:51;0.50;;;0.47;;
76234;SDS011;65036;50.934;4.420;2023-02-18T04:55:16;0.57;;;0.40;;
76234;SDS011;65036;50.934;4.420;2023-02-18T04:57:41;1.45;;;0.70;;
76234;SDS011;65036;50.934;4.420;2023-02-18T05:00:07;0.70;;;0.40;;
76234;SDS011;65036;50.934;4.420;2023-02-18T05:02:34;0.70;;;0.32;;
76234;SDS011;65036;50.934;4.420;2023-02-18T05:04:59;1.08;;;0.60;;
76234;SDS011;65036;50.934;4.420;2023-02-18T05:07:25;0.88;;;0.50;;
76234;SDS011;65036;50.934;4.420;2023-02-18T05:09:51;0.93;;;0.50;;
76234;SDS011;65036;50.934;4.420;2023-02-18T05:12:16;0.90;;;0.50;;
76234;SDS011;65036;50.934;4.420;2023-02-18T05:14:42;0.63;;;0.40;;
76234;SDS011;65036;50.934;4.420;2023-02-18T05:17:07;0.93;;;0.43;;
76234;SDS011;65036;50.934;4.420;2023-02-18T05:19:33;0.70;;;0.40;;
76234;SDS011;65036;50.934;4.420;2023-02-18T05:21:58;1.50;;;0.50;;
76234;SDS011;65036;50.934;4.420;2023-02-18T05:24:23;0.98;;;0.60;;
76234;SDS011;65036;50.934;4.420;2023-02-18T05:26:49;0.93;;;0.47;;
76234;SDS011;65036;50.934;4.420;2023-02-18T05:29:14;0.95;;;0.30;;
76234;SDS011;65036;50.934;4.420;2023-02-18T05:31:39;0.68;;;0.43;;
76234;SDS011;65036;50.934;4.420;2023-02-18T05:34:05;0.50;;;0.38;;
76234;SDS011;65036;50.934;4.420;2023-02-18T05:36:30;1.25;;;0.50;;
76234;SDS011;65036;50.934;4.420;2023-02-18T05:38:56;0.63;;;0.40;;
76234;SDS011;65036;50.934;4.420;2023-02-18T05:41:21;0.82;;;0.40;;
76234;SDS011;65036;50.934;4.420;2023-02-18T05:43:47;0.70;;;0.30;;
76234;SDS011;65036;50.934;4.420;2023-02-18T05:46:31;1.08;;;0.40;;
76234;SDS011;65036;50.934;4.420;2023-02-18T05:48:56;1.30;;;0.35;;
76234;SDS011;65036;50.934;4.420;2023-02-18T05:51:22;0.73;;;0.30;;
76234;SDS011;65036;50.934;4.420;2023-02-18T05:53:47;1.17;;;0.40;;
76234;SDS011;65036;50.934;4.420;2023-02-18T05:56:13;0.95;;;0.50;;
76234;SDS011;65036;50.934;4.420;2023-02-18T05:58:38;0.98;;;0.45;;
76234;SDS011;65036;50.934;4.420;2023-02-18T06:01:03;1.25;;;0.57;;
76234;SDS011;65036;50.934;4.420;2023-02-18T06:03:29;0.85;;;0.50;;
76234;SDS011;65036;50.934;4.420;2023-02-18T06:05:54;1.50;;;0.50;;
76234;SDS011;65036;50.934;4.420;2023-02-18T06:08:20;0.63;;;0.40;;
76234;SDS011;65036;50.934;4.420;2023-02-18T06:10:45;1.27;;;0.40;;
76234;SDS011;65036;50.934;4.420;2023-02-18T06:13:11;1.10;;;0.40;;
76234;SDS011;65036;50.934;4.420;2023-02-18T06:15:36;1.02;;;0.50;;
76234;SDS011;65036;50.934;4.420;2023-02-18T06:18:02;2.10;;;0.52;;
76234;SDS011;65036;50.934;4.420;2023-02-18T06:20:28;2.88;;;0.40;;
76234;SDS011;65036;50.934;4.420;2023-02-18T06:22:54;2.70;;;0.70;;
76234;SDS011;65036;50.934;4.420;2023-02-18T06:25:19;1.63;;;0.60;;
76234;SDS011;65036;50.934;4.420;2023-02-18T06:27:45;1.52;;;0.45;;
76234;SDS011;65036;50.934;4.420;2023-02-18T06:30:10;4.30;;;0.65;;
76234;SDS011;65036;50.934;4.420;2023-02-18T06:32:36;2.83;;;0.50;;
76234;SDS011;65036;50.934;4.420;2023-02-18T06:35:01;1.48;;;0.40;;
76234;SDS011;65036;50.934;4.420;2023-02-18T06:37:26;3.20;;;0.57;;
76234;SDS011;65036;50.934;4.420;2023-02-18T06:39:52;3.53;;;0.60;;
76234;SDS011;65036;50.934;4.420;2023-02-18T06:42:17;3.40;;;0.80;;
76234;SDS011;65036;50.934;4.420;2023-02-18T06:44:43;2.67;;;0.70;;
76234;SDS011;65036;50.934;4.420;2023-02-18T06:47:08;4.50;;;0.47;;
76234;SDS011;65036;50.934;4.420;2023-02-18T06:49:34;3.80;;;0.82;;
76234;SDS011;65036;50.934;4.420;2023-02-18T06:52:00;2.95;;;0.60;;
76234;SDS011;65036;50.934;4.420;2023-02-18T06:54:26;2.78;;;0.45;;
76234;SDS011;65036;50.934;4.420;2023-02-18T06:56:51;2.53;;;0.77;;
76234;SDS011;65036;50.934;4.420;2023-02-18T06:59:17;4.00;;;0.63;;
76234;SDS011;65036;50.934;4.420;2023-02-18T07:01:42;3.72;;;0.98;;
76234;SDS011;65036;50.934;4.420;2023-02-18T07:04:07;3.42;;;0.70;;
76234;SDS011;65036;50.934;4.420;2023-02-18T07:06:33;4.28;;;0.60;;
76234;SDS011;65036;50.934;4.420;2023-02-18T07:08:58;4.72;;;0.98;;
76234;SDS011;65036;50.934;4.420;2023-02-18T07:11:24;2.75;;;0.75;;
76234;SDS011;65036;50.934;4.420;2023-02-18T07:13:49;4.13;;;0.57;;
76234;SDS011;65036;50.934;4.420;2023-02-18T07:16:14;4.28;;;0.93;;
76234;SDS011;65036;50.934;4.420;2023-02-18T07:18:40;3.17;;;0.60;;
76234;SDS011;65036;50.934;4.420;2023-02-18T07:21:05;4.10;;;0.82;;
76234;SDS011;65036;50.934;4.420;2023-02-18T07:23:31;4.50;;;0.90;;
76234;SDS011;65036;50.934;4.420;2023-02-18T07:26:06;4.55;;;0.88;;
76234;SDS011;65036;50.934;4.420;2023-02-18T07:28:33;2.70;;;0.90;;
76234;SDS011;65036;50.934;4.420;2023-02-18T07:30:58;4.82;;;0.88;;
76234;SDS011;65036;50.934;4.420;2023-02-18T07:33:24;3.42;;;0.70;;
76234;SDS011;65036;50.934;4.420;2023-02-18T07:35:56;4.28;;;1.00;;
76234;SDS011;65036;50.934;4.420;2023-02-18T07:38:23;2.30;;;0.77;;
76234;SDS011;65036;50.934;4.420;2023-02-18T07:40:49;4.75;;;0.75;;
76234;SDS011;65036;50.934;4.420;2023-02-18T07:43:14;3.70;;;1.00;;
76234;SDS011;65036;50.934;4.420;2023-02-18T07:45:40;5.82;;;0.90;;
76234;SDS011;65036;50.934;4.420;2023-02-18T07:48:05;2.83;;;0.80;;
76234;SDS011;65036;50.934;4.420;2023-02-18T07:50:31;3.70;;;0.73;;
76234;SDS011;65036;50.934;4.420;2023-02-18T07:53:00;5.35;;;0.93;;
76234;SDS011;65036;50.934;4.420;2023-02-18T07:55:25;3.50;;;0.73;;
76234;SDS011;65036;50.934;4.420;2023-02-18T07:58:11;7.38;;;0.80;;
76234;SDS011;65036;50.934;4.420;2023-02-18T08:00:36;3.90;;;0.68;;
76234;SDS011;65036;50.934;4.420;2023-02-18T08:03:02;5.82;;;1.00;;
76234;SDS011;65036;50.934;4.420;2023-02-18T08:05:27;7.35;;;1.40;;
76234;SDS011;65036;50.934;4.420;2023-02-18T08:07:53;7.53;;;0.90;;
76234;SDS011;65036;50.934;4.420;2023-02-18T08:10:18;6.22;;;1.30;;
76234;SDS011;65036;50.934;4.420;2023-02-18T08:12:44;7.63;;;1.10;;
76234;SDS011;65036;50.934;4.420;2023-02-18T08:15:09;7.93;;;1.30;;
76234;SDS011;65036;50.934;4.420;2023-02-18T08:17:35;4.15;;;0.80;;
76234;SDS011;65036;50.934;4.420;2023-02-18T08:20:00;5.90;;;1.23;;
76234;SDS011;65036;50.934;4.420;2023-02-18T08:22:26;4.75;;;0.90;;
76234;SDS011;65036;50.934;4.420;2023-02-18T08:24:53;5.40;;;0.93;;
76234;SDS011;65036;50.934;4.420;2023-02-18T08:27:20;7.80;;;1.13;;
76234;SDS011;65036;50.934;4.420;2023-02-18T08:29:45;3.92;;;0.80;;
76234;SDS011;65036;50.934;4.420;2023-02-18T08:32:11;4.82;;;0.95;;
76234;SDS011;65036;50.934;4.420;2023-02-18T08:34:37;3.95;;;0.90;;
76234;SDS011;65036;50.934;4.420;2023-02-18T08:37:03;3.10;;;0.68;;
76234;SDS011;65036;50.934;4.420;2023-02-18T08:39:32;1.95;;;0.70;;
76234;SDS011;65036;50.934;4.420;2023-02-18T08:41:59;5.15;;;1.20;;
76234;SDS011;65036;50.934;4.420;2023-02-18T08:44:25;7.78;;;1.33;;
76234;SDS011;65036;50.934;4.420;2023-02-18T08:46:51;5.50;;;0.90;;
76234;SDS011;65036;50.934;4.420;2023-02-18T08:49:16;3.17;;;0.85;;
76234;SDS011;65036;50.934;4.420;2023-02-18T08:51:44;4.75;;;1.10;;
76234;SDS011;65036;50.934;4.420;2023-02-18T08:54:13;4.13;;;0.82;;
76234;SDS011;65036;50.934;4.420;2023-02-18T08:56:38;3.28;;;0.80;;
76234;SDS011;65036;50.934;4.420;2023-02-18T08:59:04;5.28;;;0.90;;
76234;SDS011;65036;50.934;4.420;2023-02-18T09:01:30;5.93;;;0.90;;
76234;SDS011;65036;50.934;4.420;2023-02-18T09:03:55;6.60;;;0.80;;
76234;SDS011;65036;50.934;4.420;2023-02-18T09:06:21;2.63;;;0.82;;
76234;SDS011;65036;50.934;4.420;2023-02-18T09:08:47;3.33;;;0.93;;
76234;SDS011;65036;50.934;4.420;2023-02-18T09:11:12;5.15;;;1.15;;
76234;SDS011;65036;50.934;4.420;2023-02-18T09:13:38;5.57;;;1.05;;
76234;SDS011;65036;50.934;4.420;2023-02-18T09:16:09;6.50;;;0.93;;
76234;SDS011;65036;50.934;4.420;2023-02-18T09:18:39;4.88;;;1.13;;
76234;SDS011;65036;50.934;4.420;2023-02-18T09:21:05;3.45;;;0.98;;
76234;SDS011;65036;50.934;4.420;2023-02-18T09:23:32;5.22;;;0.90;;
76234;SDS011;65036;50.934;4.420;2023-02-18T09:25:57;3.78;;;1.05;;
76234;SDS011;65036;50.934;4.420;2023-02-18T09:28:23;3.08;;;0.90;;
76234;SDS011;65036;50.934;4.420;2023-02-18T09:30:48;2.60;;;0.75;;
76234;SDS011;65036;50.934;4.420;2023-02-18T09:33:14;3.17;;;0.98;;
76234;SDS011;65036;50.934;4.420;2023-02-18T09:35:40;6.45;;;1.13;;
76234;SDS011;65036;50.934;4.420;2023-02-18T09:38:08;1.77;;;0.57;;
76234;SDS011;65036;50.934;4.420;2023-02-18T09:40:34;4.78;;;0.75;;
76234;SDS011;65036;50.934;4.420;2023-02-18T09:43:02;3.83;;;0.90;;
76234;SDS011;65036;50.934;4.420;2023-02-18T09:45:29;3.15;;;0.70;;
76234;SDS011;65036;50.934;4.420;2023-02-18T09:47:55;2.53;;;0.80;;
76234;SDS011;65036;50.934;4.420;2023-02-18T09:52:53;5.63;;;0.73;;
76234;SDS011;65036;50.934;4.420;2023-02-18T09:57:49;4.53;;;0.73;;
76234;SDS011;65036;50.934;4.420;2023-02-18T10:00:21;3.17;;;0.70;;
76234;SDS011;65036;50.934;4.420;2023-02-18T10:02:52;1.85;;;0.63;;
76234;SDS011;65036;50.934;4.420;2023-02-18T10:05:20;3.92;;;0.82;;
76234;SDS011;65036;50.934;4.420;2023-02-18T10:07:47;3.58;;;1.02;;
76234;SDS011;65036;50.934;4.420;2023-02-18T10:12:47;4.43;;;0.90;;
76234;SDS011;65036;50.934;4.420;2023-02-18T10:15:19;3.88;;;0.82;;
76234;SDS011;65036;50.934;4.420;2023-02-18T10:17:47;3.85;;;0.68;;
76234;SDS011;65036;50.934;4.420;2023-02-18T10:20:14;2.08;;;0.80;;
76234;SDS011;65036;50.934;4.420;2023-02-18T10:22:41;2.90;;;0.70;;
76234;SDS011;65036;50.934;4.420;2023-02-18T10:25:06;3.78;;;1.05;;
76234;SDS011;65036;50.934;4.420;2023-02-18T10:27:33;3.10;;;0.85;;
76234;SDS011;65036;50.934;4.420;2023-02-18T10:30:45;3.30;;;0.70;;
76234;SDS011;65036;50.934;4.420;2023-02-18T10:32:48;3.20;;;0.77;;
76234;SDS011;65036;50.934;4.420;2023-02-18T10:38:15;7.57;;;0.80;;
76234;SDS011;65036;50.934;4.420;2023-02-18T10:51:39;5.05;;;0.82;;
76234;SDS011;65036;50.934;4.420;2023-02-18T10:54:09;2.92;;;0.77;;
76234;SDS011;65036;50.934;4.420;2023-02-18T10:59:31;3.50;;;0.90;;
76234;SDS011;65036;50.934;4.420;2023-02-18T11:04:25;3.35;;;0.63;;
76234;SDS011;65036;50.934;4.420;2023-02-18T11:07:03;1.38;;;0.63;;
76234;SDS011;65036;50.934;4.420;2023-02-18T11:09:39;5.47;;;0.82;;
76234;SDS011;65036;50.934;4.420;2023-02-18T11:12:05;3.45;;;0.75;;
76234;SDS011;65036;50.934;4.420;2023-02-18T11:14:45;2.75;;;0.70;;
76234;SDS011;65036;50.934;4.420;2023-02-18T11:19:41;3.35;;;0.93;;
76234;SDS011;65036;50.934;4.420;2023-02-18T11:22:10;4.93;;;0.82;;
76234;SDS011;65036;50.934;4.420;2023-02-18T11:24:38;3.47;;;0.93;;
76234;SDS011;65036;50.934;4.420;2023-02-18T11:27:09;2.70;;;1.33;;
76234;SDS011;65036;50.934;4.420;2023-02-18T11:29:35;3.90;;;1.02;;
76234;SDS011;65036;50.934;4.420;2023-02-18T11:32:00;7.63;;;1.20;;
76234;SDS011;65036;50.934;4.420;2023-02-18T11:34:27;3.75;;;0.65;;
76234;SDS011;65036;50.934;4.420;2023-02-18T11:36:54;4.75;;;0.80;;
76234;SDS011;65036;50.934;4.420;2023-02-18T11:39:24;2.63;;;1.00;;
76234;SDS011;65036;50.934;4.420;2023-02-18T11:41:55;2.20;;;0.70;;
76234;SDS011;65036;50.934;4.420;2023-02-18T11:44:33;5.60;;;1.17;;
76234;SDS011;65036;50.934;4.420;2023-02-18T11:47:02;2.60;;;0.88;;
76234;SDS011;65036;50.934;4.420;2023-02-18T11:49:37;5.35;;;0.63;;
76234;SDS011;65036;50.934;4.420;2023-02-18T11:52:24;3.58;;;0.68;;
76234;SDS011;65036;50.934;4.420;2023-02-18T11:55:04;5.22;;;0.68;;
76234;SDS011;65036;50.934;4.420;2023-02-18T11:57:31;2.83;;;0.70;;
76234;SDS011;65036;50.934;4.420;2023-02-18T11:59:58;4.80;;;1.30;;
76234;SDS011;65036;50.934;4.420;2023-02-18T12:12:49;3.85;;;1.20;;
76234;SDS011;65036;50.934;4.420;2023-02-18T12:15:31;2.45;;;0.50;;
76234;SDS011;65036;50.934;4.420;2023-02-18T12:28:56;2.10;;;0.77;;
76234;SDS011;65036;50.934;4.420;2023-02-18T12:56:15;3.47;;;0.60;;
76234;SDS011;65036;50.934;4.420;2023-02-18T13:02:03;4.63;;;0.93;;
76234;SDS011;65036;50.934;4.420;2023-02-18T13:07:54;3.42;;;1.00;;
76234;SDS011;65036;50.934;4.420;2023-02-18T13:13:48;3.33;;;1.10;;
76234;SDS011;65036;50.934;4.420;2023-02-18T13:16:16;3.72;;;0.95;;
76234;SDS011;65036;50.934;4.420;2023-02-18T13:21:12;2.25;;;0.85;;
76234;SDS011;65036;50.934;4.420;2023-02-18T13:26:10;3.78;;;0.95;;
76234;SDS011;65036;50.934;4.420;2023-02-18T13:39:27;2.60;;;0.75;;
76234;SDS011;65036;50.934;4.420;2023-02-18T13:42:09;4.78;;;1.13;;
76234;SDS011;65036;50.934;4.420;2023-02-18T13:45:01;11.18;;;2.28;;
76234;SDS011;65036;50.934;4.420;2023-02-18T13:50:12;2.58;;;1.08;;
76234;SDS011;65036;50.934;4.420;2023-02-18T13:52:40;3.95;;;1.40;;
76234;SDS011;65036;50.934;4.420;2023-02-18T13:55:16;5.85;;;1.48;;
76234;SDS011;65036;50.934;4.420;2023-02-18T13:57:44;8.73;;;1.98;;
76234;SDS011;65036;50.934;4.420;2023-02-18T14:00:16;6.72;;;1.70;;
76234;SDS011;65036;50.934;4.420;2023-02-18T14:03:00;4.32;;;1.30;;
76234;SDS011;65036;50.934;4.420;2023-02-18T14:05:39;5.10;;;1.52;;
76234;SDS011;65036;50.934;4.420;2023-02-18T14:08:15;7.38;;;1.33;;
76234;SDS011;65036;50.934;4.420;2023-02-18T14:13:49;7.05;;;1.60;;
76234;SDS011;65036;50.934;4.420;2023-02-18T14:16:20;5.90;;;1.50;;
76234;SDS011;65036;50.934;4.420;2023-02-18T14:26:06;4.82;;;1.40;;
76234;SDS011;65036;50.934;4.420;2023-02-18T14:29:25;14.90;;;4.07;;
76234;SDS011;65036;50.934;4.420;2023-02-18T14:32:14;14.20;;;5.72;;
76234;SDS011;65036;50.934;4.420;2023-02-18T14:34:31;21.95;;;10.55;;
76234;SDS011;65036;50.934;4.420;2023-02-18T14:42:29;32.50;;;18.35;;
76234;SDS011;65036;50.934;4.420;2023-02-18T14:47:55;33.90;;;16.52;;
76234;SDS011;65036;50.934;4.420;2023-02-18T14:50:34;34.22;;;18.58;;
76234;SDS011;65036;50.934;4.420;2023-02-18T14:53:05;35.00;;;17.92;;
76234;SDS011;65036;50.934;4.420;2023-02-18T14:55:36;35.30;;;18.65;;
76234;SDS011;65036;50.934;4.420;2023-02-18T14:58:07;31.98;;;17.10;;
76234;SDS011;65036;50.934;4.420;2023-02-18T15:00:56;30.08;;;15.90;;
76234;SDS011;65036;50.934;4.420;2023-02-18T15:03:22;32.47;;;15.25;;
76234;SDS011;65036;50.934;4.420;2023-02-18T15:05:51;27.35;;;14.50;;
76234;SDS011;65036;50.934;4.420;2023-02-18T15:08:17;28.58;;;13.95;;
76234;SDS011;65036;50.934;4.420;2023-02-18T15:10:45;23.05;;;12.68;;
76234;SDS011;65036;50.934;4.420;2023-02-18T15:13:16;25.80;;;13.45;;
76234;SDS011;65036;50.934;4.420;2023-02-18T15:15:47;21.85;;;11.52;;
76234;SDS011;65036;50.934;4.420;2023-02-18T15:21:31;21.60;;;10.60;;
76234;SDS011;65036;50.934;4.420;2023-02-18T15:24:05;20.70;;;9.90;;
76234;SDS011;65036;50.934;4.420;2023-02-18T15:26:31;20.08;;;9.52;;
76234;SDS011;65036;50.934;4.420;2023-02-18T15:28:58;22.38;;;10.07;;
76234;SDS011;65036;50.934;4.420;2023-02-18T15:31:24;23.52;;;13.30;;
76234;SDS011;65036;50.934;4.420;2023-02-18T15:33:51;25.80;;;13.05;;
76234;SDS011;65036;50.934;4.420;2023-02-18T15:36:16;24.83;;;12.15;;
76234;SDS011;65036;50.934;4.420;2023-02-18T15:38:41;27.85;;;12.18;;
76234;SDS011;65036;50.934;4.420;2023-02-18T15:41:12;22.30;;;12.40;;
76234;SDS011;65036;50.934;4.420;2023-02-18T15:43:50;23.77;;;12.57;;
76234;SDS011;65036;50.934;4.420;2023-02-18T15:48:42;26.97;;;11.93;;
76234;SDS011;65036;50.934;4.420;2023-02-18T15:51:10;24.40;;;12.50;;
76234;SDS011;65036;50.934;4.420;2023-02-18T15:53:38;19.35;;;11.15;;
76234;SDS011;65036;50.934;4.420;2023-02-18T15:56:06;27.77;;;15.45;;
76234;SDS011;65036;50.934;4.420;2023-02-18T15:58:34;25.70;;;15.88;;
76234;SDS011;65036;50.934;4.420;2023-02-18T16:01:01;28.73;;;20.20;;
76234;SDS011;65036;50.934;4.420;2023-02-18T16:03:28;31.25;;;22.15;;
76234;SDS011;65036;50.934;4.420;2023-02-18T16:06:09;31.50;;;23.60;;
76234;SDS011;65036;50.934;4.420;2023-02-18T16:08:35;34.10;;;25.30;;
76234;SDS011;65036;50.934;4.420;2023-02-18T16:11:06;39.17;;;28.17;;
76234;SDS011;65036;50.934;4.420;2023-02-18T16:13:34;35.65;;;28.52;;
76234;SDS011;65036;50.934;4.420;2023-02-18T16:16:01;39.58;;;28.40;;
76234;SDS011;65036;50.934;4.420;2023-02-18T16:18:34;41.08;;;31.30;;
76234;SDS011;65036;50.934;4.420;2023-02-18T16:21:02;37.97;;;32.05;;
76234;SDS011;65036;50.934;4.420;2023-02-18T16:23:41;44.60;;;32.15;;
76234;SDS011;65036;50.934;4.420;2023-02-18T16:26:09;46.35;;;33.88;;
76234;SDS011;65036;50.934;4.420;2023-02-18T16:28:59;43.08;;;28.98;;
76234;SDS011;65036;50.934;4.420;2023-02-18T16:31:27;46.78;;;33.10;;
76234;SDS011;65036;50.934;4.420;2023-02-18T16:33:53;44.33;;;31.98;;
76234;SDS011;65036;50.934;4.420;2023-02-18T16:36:18;44.72;;;30.52;;
76234;SDS011;65036;50.934;4.420;2023-02-18T16:38:46;36.78;;;29.55;;
76234;SDS011;65036;50.934;4.420;2023-02-18T16:41:12;42.47;;;32.08;;
76234;SDS011;65036;50.934;4.420;2023-02-18T16:43:38;38.45;;;29.48;;
76234;SDS011;65036;50.934;4.420;2023-02-18T16:46:06;37.47;;;29.23;;
76234;SDS011;65036;50.934;4.420;2023-02-18T16:48:35;37.83;;;25.00;;
76234;SDS011;65036;50.934;4.420;2023-02-18T16:51:02;35.53;;;26.60;;
76234;SDS011;65036;50.934;4.420;2023-02-18T16:53:30;32.00;;;25.65;;
76234;SDS011;65036;50.934;4.420;2023-02-18T16:55:55;32.38;;;24.98;;
76234;SDS011;65036;50.934;4.420;2023-02-18T16:58:21;32.42;;;24.52;;
76234;SDS011;65036;50.934;4.420;2023-02-18T17:00:46;43.80;;;25.23;;
76234;SDS011;65036;50.934;4.420;2023-02-18T17:03:13;30.42;;;21.02;;
76234;SDS011;65036;50.934;4.420;2023-02-18T17:05:38;29.98;;;23.00;;
76234;SDS011;65036;50.934;4.420;2023-02-18T17:08:24;28.70;;;21.70;;
76234;SDS011;65036;50.934;4.420;2023-02-18T17:10:54;28.50;;;19.00;;
76234;SDS011;65036;50.934;4.420;2023-02-18T17:13:22;27.55;;;20.20;;
76234;SDS011;65036;50.934;4.420;2023-02-18T17:15:50;28.38;;;19.90;;
76234;SDS011;65036;50.934;4.420;2023-02-18T17:18:17;25.23;;;19.67;;
76234;SDS011;65036;50.934;4.420;2023-02-18T17:20:43;26.80;;;18.60;;
76234;SDS011;65036;50.934;4.420;2023-02-18T17:23:15;25.88;;;17.70;;
76234;SDS011;65036;50.934;4.420;2023-02-18T17:25:42;26.25;;;18.48;;
76234;SDS011;65036;50.934;4.420;2023-02-18T17:28:09;23.27;;;17.17;;
76234;SDS011;65036;50.934;4.420;2023-02-18T17:30:36;20.70;;;15.80;;
76234;SDS011;65036;50.934;4.420;2023-02-18T17:33:03;21.95;;;16.17;;
76234;SDS011;65036;50.934;4.420;2023-02-18T17:35:28;18.75;;;13.75;;
76234;SDS011;65036;50.934;4.420;2023-02-18T17:37:54;18.92;;;14.10;;
76234;SDS011;65036;50.934;4.420;2023-02-18T17:40:22;20.95;;;14.63;;
76234;SDS011;65036;50.934;4.420;2023-02-18T17:42:48;19.10;;;14.00;;
76234;SDS011;65036;50.934;4.420;2023-02-18T17:47:43;18.98;;;12.65;;
76234;SDS011;65036;50.934;4.420;2023-02-18T17:50:09;15.63;;;12.10;;
76234;SDS011;65036;50.934;4.420;2023-02-18T17:52:34;13.65;;;11.15;;
76234;SDS011;65036;50.934;4.420;2023-02-18T17:55:00;14.82;;;11.73;;
76234;SDS011;65036;50.934;4.420;2023-02-18T17:57:26;14.30;;;11.50;;
76234;SDS011;65036;50.934;4.420;2023-02-18T17:59:52;15.07;;;10.32;;
76234;SDS011;65036;50.934;4.420;2023-02-18T18:02:25;11.80;;;9.32;;
76234;SDS011;65036;50.934;4.420;2023-02-18T18:04:51;11.63;;;9.30;;
76234;SDS011;65036;50.934;4.420;2023-02-18T18:07:17;13.80;;;9.55;;
76234;SDS011;65036;50.934;4.420;2023-02-18T18:09:42;10.88;;;8.30;;
76234;SDS011;65036;50.934;4.420;2023-02-18T18:12:08;12.57;;;8.95;;
76234;SDS011;65036;50.934;4.420;2023-02-18T18:14:38;11.57;;;8.55;;
76234;SDS011;65036;50.934;4.420;2023-02-18T18:17:04;10.95;;;8.20;;
76234;SDS011;65036;50.934;4.420;2023-02-18T18:19:34;12.38;;;8.95;;
76234;SDS011;65036;50.934;4.420;2023-02-18T18:22:02;11.05;;;7.70;;
76234;SDS011;65036;50.934;4.420;2023-02-18T18:24:31;13.32;;;7.72;;
76234;SDS011;65036;50.934;4.420;2023-02-18T18:26:56;11.10;;;7.25;;
76234;SDS011;65036;50.934;4.420;2023-02-18T18:29:22;10.82;;;7.07;;
76234;SDS011;65036;50.934;4.420;2023-02-18T18:31:47;11.10;;;7.82;;
76234;SDS011;65036;50.934;4.420;2023-02-18T18:34:13;8.48;;;6.40;;
76234;SDS011;65036;50.934;4.420;2023-02-18T18:36:40;10.38;;;6.50;;
76234;SDS011;65036;50.934;4.420;2023-02-18T18:39:06;8.50;;;6.15;;
76234;SDS011;65036;50.934;4.420;2023-02-18T18:41:32;8.13;;;5.38;;
76234;SDS011;65036;50.934;4.420;2023-02-18T18:43:57;8.48;;;6.15;;
76234;SDS011;65036;50.934;4.420;2023-02-18T18:46:23;9.50;;;5.70;;
76234;SDS011;65036;50.934;4.420;2023-02-18T18:48:48;9.07;;;5.60;;
76234;SDS011;65036;50.934;4.420;2023-02-18T18:51:17;9.88;;;5.60;;
76234;SDS011;65036;50.934;4.420;2023-02-18T18:53:46;6.57;;;4.70;;
76234;SDS011;65036;50.934;4.420;2023-02-18T18:56:11;9.68;;;4.75;;
76234;SDS011;65036;50.934;4.420;2023-02-18T18:58:37;7.63;;;4.97;;
76234;SDS011;65036;50.934;4.420;2023-02-18T19:01:03;7.70;;;4.40;;
76234;SDS011;65036;50.934;4.420;2023-02-18T19:03:30;6.07;;;4.53;;
76234;SDS011;65036;50.934;4.420;2023-02-18T19:05:57;6.57;;;4.70;;
76234;SDS011;65036;50.934;4.420;2023-02-18T19:08:23;7.90;;;4.75;;
76234;SDS011;65036;50.934;4.420;2023-02-18T19:10:49;6.53;;;4.45;;
76234;SDS011;65036;50.934;4.420;2023-02-18T19:13:18;6.07;;;3.88;;
76234;SDS011;65036;50.934;4.420;2023-02-18T19:15:45;7.18;;;4.00;;
76234;SDS011;65036;50.934;4.420;2023-02-18T19:18:15;6.30;;;4.28;;
76234;SDS011;65036;50.934;4.420;2023-02-18T19:20:44;5.75;;;3.95;;
76234;SDS011;65036;50.934;4.420;2023-02-18T19:23:11;6.43;;;3.38;;
76234;SDS011;65036;50.934;4.420;2023-02-18T19:25:37;4.18;;;3.05;;
76234;SDS011;65036;50.934;4.420;2023-02-18T19:28:03;3.88;;;2.80;;
76234;SDS011;65036;50.934;4.420;2023-02-18T19:30:30;6.38;;;4.30;;
76234;SDS011;65036;50.934;4.420;2023-02-18T19:32:58;6.07;;;2.70;;
76234;SDS011;65036;50.934;4.420;2023-02-18T19:35:31;4.90;;;3.03;;
76234;SDS011;65036;50.934;4.420;2023-02-18T19:37:57;5.53;;;3.65;;
76234;SDS011;65036;50.934;4.420;2023-02-18T19:40:24;5.13;;;3.13;;
76234;SDS011;65036;50.934;4.420;2023-02-18T19:42:51;3.22;;;2.45;;
76234;SDS011;65036;50.934;4.420;2023-02-18T19:45:17;4.43;;;2.42;;
76234;SDS011;65036;50.934;4.420;2023-02-18T19:47:43;4.13;;;3.10;;
76234;SDS011;65036;50.934;4.420;2023-02-18T19:50:11;4.00;;;2.40;;
76234;SDS011;65036;50.934;4.420;2023-02-18T19:52:38;5.38;;;2.67;;
76234;SDS011;65036;50.934;4.420;2023-02-18T19:55:04;3.33;;;2.45;;
76234;SDS011;65036;50.934;4.420;2023-02-18T19:57:30;2.78;;;2.30;;
76234;SDS011;65036;50.934;4.420;2023-02-18T19:59:56;3.58;;;2.50;;
76234;SDS011;65036;50.934;4.420;2023-02-18T20:02:22;3.28;;;2.50;;
76234;SDS011;65036;50.934;4.420;2023-02-18T20:04:49;4.78;;;2.55;;
76234;SDS011;65036;50.934;4.420;2023-02-18T20:07:15;2.83;;;1.88;;
76234;SDS011;65036;50.934;4.420;2023-02-18T20:09:42;3.28;;;2.25;;
76234;SDS011;65036;50.934;4.420;2023-02-18T20:12:08;2.80;;;2.17;;
76234;SDS011;65036;50.934;4.420;2023-02-18T20:14:35;2.25;;;1.60;;
76234;SDS011;65036;50.934;4.420;2023-02-18T20:17:01;3.13;;;2.00;;
76234;SDS011;65036;50.934;4.420;2023-02-18T20:19:27;3.53;;;2.10;;
76234;SDS011;65036;50.934;4.420;2023-02-18T20:21:53;2.10;;;1.70;;
76234;SDS011;65036;50.934;4.420;2023-02-18T20:24:20;2.72;;;1.73;;